📊 Raw Sensor Data
Showing records 51676 to 51700 of 85,151 total
| ID | Distance (ft) | Battery V | Battery A | Int Temp (°F) | Int Humid (%) | Ext Temp (°F) | Solar V | RSSI | SNR | Time Stamp |
|---|---|---|---|---|---|---|---|---|---|---|
| 33488 | 14.9 | 3.96 | 10 | 77 | 34 | 69 | 5.10 | -70 | 8 | 02/26/2025 12:45 PM |
| 33487 | 14.9 | 3.92 | 0 | 76 | 34 | 69 | 5.10 | -70 | 7 | 02/26/2025 12:30 PM |
| 33486 | 14.9 | 3.92 | 10 | 74 | 35 | 68 | 5.10 | -70 | 8 | 02/26/2025 12:15 PM |
| 33485 | 14.9 | 3.92 | 0 | 73 | 35 | 67 | 5.10 | -71 | 8 | 02/26/2025 12:00 PM |
| 33484 | 14.9 | 3.92 | 10 | 71 | 35 | 67 | 5.10 | -71 | 8 | 02/26/2025 11:45 AM |
| 33483 | 14.9 | 3.92 | 10 | 71 | 34 | 65 | 5.10 | -71 | 8 | 02/26/2025 11:30 AM |
| 33482 | 15.0 | 3.92 | 10 | 71 | 33 | 64 | 5.10 | -71 | 7 | 02/26/2025 11:15 AM |
| 33481 | 15.0 | 3.92 | 6 | 68 | 34 | 63 | 5.10 | -71 | 7 | 02/26/2025 11:00 AM |
| 33480 | 15.0 | 3.92 | 0 | 66 | 34 | 63 | 5.10 | -71 | 8 | 02/26/2025 10:45 AM |
| 33479 | 14.9 | 3.92 | 0 | 64 | 34 | 63 | 5.10 | -71 | 7 | 02/26/2025 10:30 AM |
| 33478 | 14.9 | 3.92 | 10 | 62 | 33 | 62 | 5.10 | -71 | 8 | 02/26/2025 10:15 AM |
| 33477 | 14.9 | 3.92 | 10 | 61 | 33 | 59 | 5.10 | -71 | 8 | 02/26/2025 10:00 AM |
| 33476 | 14.9 | 3.92 | 10 | 55 | 34 | 59 | 5.10 | -71 | 8 | 02/26/2025 09:30 AM |
| 33475 | 14.9 | 3.92 | 6 | 53 | 34 | 59 | 5.10 | -71 | 8 | 02/26/2025 09:15 AM |
| 33474 | 14.9 | 3.92 | 7 | 51 | 34 | 57 | 5.10 | -71 | 8 | 02/26/2025 09:00 AM |
| 33473 | 14.8 | 3.93 | 10 | 48 | 34 | 55 | 5.10 | -71 | 8 | 02/26/2025 08:45 AM |
| 33472 | 14.7 | 3.92 | 10 | 44 | 35 | 50 | 5.10 | -71 | 8 | 02/26/2025 08:15 AM |
| 33471 | 14.7 | 3.92 | 10 | 42 | 35 | 48 | 5.00 | -71 | 8 | 02/26/2025 08:00 AM |
| 33470 | 14.7 | 4.03 | 74 | 39 | 36 | 46 | 4.50 | -71 | 8 | 02/26/2025 07:45 AM |
| 33469 | 14.7 | 3.99 | 58 | 37 | 36 | 40 | 4.50 | -70 | 9 | 02/26/2025 07:30 AM |
| 33468 | 14.7 | 3.92 | 16 | 36 | 37 | 40 | 4.50 | -70 | 8 | 02/26/2025 07:15 AM |
| 33467 | 14.6 | 3.93 | 8 | 36 | 37 | 38 | 4.50 | -71 | 8 | 02/26/2025 07:00 AM |
| 33466 | 14.6 | 3.84 | -9 | 35 | 37 | 38 | 4.50 | -71 | 8 | 02/26/2025 06:45 AM |
| 33465 | 14.6 | 3.90 | -5 | 35 | 37 | 38 | 1.40 | -71 | 8 | 02/26/2025 06:30 AM |
| 33464 | 14.6 | 3.85 | -5 | 35 | 37 | 38 | 0.00 | -71 | 9 | 02/26/2025 06:15 AM |